sensor_id;sensor_type;location;lat;lon;timestamp;P1;durP1;ratioP1;P2;durP2;ratioP2
52708;SDS011;38606;52.986;6.980;2023-12-20T00:01:22;13.68;;;2.05;;
52708;SDS011;38606;52.986;6.980;2023-12-20T00:03:48;11.20;;;1.80;;
52708;SDS011;38606;52.986;6.980;2023-12-20T00:06:13;17.95;;;2.30;;
52708;SDS011;38606;52.986;6.980;2023-12-20T00:08:39;14.68;;;2.10;;
52708;SDS011;38606;52.986;6.980;2023-12-20T00:11:05;15.48;;;2.30;;
52708;SDS011;38606;52.986;6.980;2023-12-20T00:13:30;22.13;;;2.28;;
52708;SDS011;38606;52.986;6.980;2023-12-20T00:15:56;20.48;;;2.13;;
52708;SDS011;38606;52.986;6.980;2023-12-20T00:18:22;20.58;;;2.30;;
52708;SDS011;38606;52.986;6.980;2023-12-20T00:20:48;19.63;;;2.15;;
52708;SDS011;38606;52.986;6.980;2023-12-20T00:23:14;16.17;;;1.90;;
52708;SDS011;38606;52.986;6.980;2023-12-20T00:25:40;18.30;;;1.92;;
52708;SDS011;38606;52.986;6.980;2023-12-20T00:28:05;12.00;;;1.83;;
52708;SDS011;38606;52.986;6.980;2023-12-20T00:30:31;15.43;;;1.50;;
52708;SDS011;38606;52.986;6.980;2023-12-20T00:32:57;14.02;;;1.90;;
52708;SDS011;38606;52.986;6.980;2023-12-20T00:35:23;15.68;;;1.98;;
52708;SDS011;38606;52.986;6.980;2023-12-20T00:37:49;13.38;;;1.92;;
52708;SDS011;38606;52.986;6.980;2023-12-20T00:40:15;10.88;;;1.98;;
52708;SDS011;38606;52.986;6.980;2023-12-20T00:42:40;16.02;;;1.88;;
52708;SDS011;38606;52.986;6.980;2023-12-20T00:45:06;18.60;;;1.75;;
52708;SDS011;38606;52.986;6.980;2023-12-20T00:47:32;19.88;;;3.05;;
52708;SDS011;38606;52.986;6.980;2023-12-20T00:49:58;15.18;;;2.20;;
52708;SDS011;38606;52.986;6.980;2023-12-20T00:52:24;18.70;;;2.20;;
52708;SDS011;38606;52.986;6.980;2023-12-20T00:54:50;12.93;;;1.65;;
52708;SDS011;38606;52.986;6.980;2023-12-20T00:57:16;12.82;;;2.22;;
52708;SDS011;38606;52.986;6.980;2023-12-20T00:59:41;14.48;;;1.92;;
52708;SDS011;38606;52.986;6.980;2023-12-20T01:02:07;21.88;;;2.03;;
52708;SDS011;38606;52.986;6.980;2023-12-20T01:04:34;13.85;;;1.65;;
52708;SDS011;38606;52.986;6.980;2023-12-20T01:06:59;17.63;;;2.30;;
52708;SDS011;38606;52.986;6.980;2023-12-20T01:09:25;17.20;;;2.40;;
52708;SDS011;38606;52.986;6.980;2023-12-20T01:11:54;22.95;;;2.35;;
52708;SDS011;38606;52.986;6.980;2023-12-20T01:14:19;19.88;;;2.00;;
52708;SDS011;38606;52.986;6.980;2023-12-20T01:16:45;21.80;;;2.05;;
52708;SDS011;38606;52.986;6.980;2023-12-20T01:19:11;16.55;;;2.20;;
52708;SDS011;38606;52.986;6.980;2023-12-20T01:21:38;17.17;;;3.22;;
52708;SDS011;38606;52.986;6.980;2023-12-20T01:24:04;21.48;;;2.00;;
52708;SDS011;38606;52.986;6.980;2023-12-20T01:26:30;18.08;;;1.98;;
52708;SDS011;38606;52.986;6.980;2023-12-20T01:28:55;21.58;;;2.47;;
52708;SDS011;38606;52.986;6.980;2023-12-20T01:31:21;12.07;;;1.80;;
52708;SDS011;38606;52.986;6.980;2023-12-20T01:33:47;17.73;;;2.10;;
52708;SDS011;38606;52.986;6.980;2023-12-20T01:36:12;28.23;;;2.33;;
52708;SDS011;38606;52.986;6.980;2023-12-20T01:38:38;17.95;;;2.00;;
52708;SDS011;38606;52.986;6.980;2023-12-20T01:41:04;26.30;;;2.60;;
52708;SDS011;38606;52.986;6.980;2023-12-20T01:43:30;26.05;;;2.20;;
52708;SDS011;38606;52.986;6.980;2023-12-20T01:45:56;11.63;;;1.70;;
52708;SDS011;38606;52.986;6.980;2023-12-20T01:48:23;15.73;;;2.88;;
52708;SDS011;38606;52.986;6.980;2023-12-20T01:50:50;18.42;;;2.25;;
52708;SDS011;38606;52.986;6.980;2023-12-20T01:53:17;20.25;;;2.38;;
52708;SDS011;38606;52.986;6.980;2023-12-20T01:55:45;21.40;;;2.22;;
52708;SDS011;38606;52.986;6.980;2023-12-20T01:58:13;24.50;;;2.53;;
52708;SDS011;38606;52.986;6.980;2023-12-20T02:00:40;21.80;;;2.72;;
52708;SDS011;38606;52.986;6.980;2023-12-20T02:03:06;19.48;;;2.45;;
52708;SDS011;38606;52.986;6.980;2023-12-20T02:05:33;22.10;;;2.55;;
52708;SDS011;38606;52.986;6.980;2023-12-20T02:08:00;19.05;;;2.20;;
52708;SDS011;38606;52.986;6.980;2023-12-20T02:10:26;13.18;;;2.17;;
52708;SDS011;38606;52.986;6.980;2023-12-20T02:12:52;16.58;;;2.38;;
52708;SDS011;38606;52.986;6.980;2023-12-20T02:15:18;25.27;;;2.20;;
52708;SDS011;38606;52.986;6.980;2023-12-20T02:17:44;13.75;;;2.10;;
52708;SDS011;38606;52.986;6.980;2023-12-20T02:20:11;17.58;;;2.20;;
52708;SDS011;38606;52.986;6.980;2023-12-20T02:22:37;24.40;;;2.60;;
52708;SDS011;38606;52.986;6.980;2023-12-20T02:25:03;16.63;;;2.47;;
52708;SDS011;38606;52.986;6.980;2023-12-20T02:27:29;17.85;;;2.10;;
52708;SDS011;38606;52.986;6.980;2023-12-20T02:29:55;21.90;;;2.53;;
52708;SDS011;38606;52.986;6.980;2023-12-20T02:32:21;23.02;;;2.60;;
52708;SDS011;38606;52.986;6.980;2023-12-20T02:34:51;18.77;;;2.22;;
52708;SDS011;38606;52.986;6.980;2023-12-20T02:37:16;24.38;;;3.47;;
52708;SDS011;38606;52.986;6.980;2023-12-20T02:39:42;18.40;;;2.10;;
52708;SDS011;38606;52.986;6.980;2023-12-20T02:42:08;23.27;;;3.05;;
52708;SDS011;38606;52.986;6.980;2023-12-20T02:44:33;24.10;;;2.80;;
52708;SDS011;38606;52.986;6.980;2023-12-20T02:46:59;23.02;;;2.95;;
52708;SDS011;38606;52.986;6.980;2023-12-20T02:49:25;27.00;;;3.33;;
52708;SDS011;38606;52.986;6.980;2023-12-20T02:51:50;20.98;;;2.30;;
52708;SDS011;38606;52.986;6.980;2023-12-20T02:54:16;21.40;;;2.45;;
52708;SDS011;38606;52.986;6.980;2023-12-20T02:56:42;18.45;;;2.42;;
52708;SDS011;38606;52.986;6.980;2023-12-20T02:59:08;26.38;;;2.80;;
52708;SDS011;38606;52.986;6.980;2023-12-20T03:01:34;21.67;;;2.40;;
52708;SDS011;38606;52.986;6.980;2023-12-20T03:04:00;21.67;;;2.83;;
52708;SDS011;38606;52.986;6.980;2023-12-20T03:06:26;19.92;;;2.17;;
52708;SDS011;38606;52.986;6.980;2023-12-20T03:08:52;20.23;;;2.60;;
52708;SDS011;38606;52.986;6.980;2023-12-20T03:11:18;28.88;;;3.15;;
52708;SDS011;38606;52.986;6.980;2023-12-20T03:13:43;18.85;;;2.63;;
52708;SDS011;38606;52.986;6.980;2023-12-20T03:16:09;26.33;;;2.55;;
52708;SDS011;38606;52.986;6.980;2023-12-20T03:18:36;18.20;;;2.60;;
52708;SDS011;38606;52.986;6.980;2023-12-20T03:21:02;16.70;;;2.42;;
52708;SDS011;38606;52.986;6.980;2023-12-20T03:23:29;22.67;;;3.15;;
52708;SDS011;38606;52.986;6.980;2023-12-20T03:25:55;21.13;;;2.80;;
52708;SDS011;38606;52.986;6.980;2023-12-20T03:28:21;16.60;;;2.78;;
52708;SDS011;38606;52.986;6.980;2023-12-20T03:30:48;20.13;;;2.67;;
52708;SDS011;38606;52.986;6.980;2023-12-20T03:33:14;18.42;;;2.47;;
52708;SDS011;38606;52.986;6.980;2023-12-20T03:35:39;15.57;;;2.75;;
52708;SDS011;38606;52.986;6.980;2023-12-20T03:38:05;19.40;;;3.10;;
52708;SDS011;38606;52.986;6.980;2023-12-20T03:40:31;23.98;;;3.38;;
52708;SDS011;38606;52.986;6.980;2023-12-20T03:42:57;26.00;;;2.65;;
52708;SDS011;38606;52.986;6.980;2023-12-20T03:45:22;26.40;;;2.80;;
52708;SDS011;38606;52.986;6.980;2023-12-20T03:47:48;21.20;;;2.90;;
52708;SDS011;38606;52.986;6.980;2023-12-20T03:50:14;24.63;;;3.30;;
52708;SDS011;38606;52.986;6.980;2023-12-20T03:52:40;25.42;;;2.78;;
52708;SDS011;38606;52.986;6.980;2023-12-20T03:55:06;30.23;;;3.22;;
52708;SDS011;38606;52.986;6.980;2023-12-20T03:57:32;35.90;;;3.35;;
52708;SDS011;38606;52.986;6.980;2023-12-20T03:59:58;27.45;;;2.70;;
52708;SDS011;38606;52.986;6.980;2023-12-20T04:02:24;26.23;;;3.53;;
52708;SDS011;38606;52.986;6.980;2023-12-20T04:04:50;26.83;;;3.85;;
52708;SDS011;38606;52.986;6.980;2023-12-20T04:07:15;26.30;;;3.35;;
52708;SDS011;38606;52.986;6.980;2023-12-20T04:09:41;30.63;;;3.58;;
52708;SDS011;38606;52.986;6.980;2023-12-20T04:12:07;24.83;;;3.42;;
52708;SDS011;38606;52.986;6.980;2023-12-20T04:14:33;27.50;;;3.28;;
52708;SDS011;38606;52.986;6.980;2023-12-20T04:16:58;31.65;;;4.00;;
52708;SDS011;38606;52.986;6.980;2023-12-20T04:19:24;32.10;;;3.63;;
52708;SDS011;38606;52.986;6.980;2023-12-20T04:21:50;36.50;;;3.78;;
52708;SDS011;38606;52.986;6.980;2023-12-20T04:24:15;26.10;;;2.90;;
52708;SDS011;38606;52.986;6.980;2023-12-20T04:26:41;30.02;;;3.45;;
52708;SDS011;38606;52.986;6.980;2023-12-20T04:29:07;30.13;;;3.90;;
52708;SDS011;38606;52.986;6.980;2023-12-20T04:31:32;34.67;;;3.83;;
52708;SDS011;38606;52.986;6.980;2023-12-20T04:33:58;28.58;;;3.70;;
52708;SDS011;38606;52.986;6.980;2023-12-20T04:36:24;29.92;;;3.83;;
52708;SDS011;38606;52.986;6.980;2023-12-20T04:38:55;29.83;;;4.30;;
52708;SDS011;38606;52.986;6.980;2023-12-20T04:41:20;38.33;;;3.35;;
52708;SDS011;38606;52.986;6.980;2023-12-20T04:43:46;22.02;;;3.53;;
52708;SDS011;38606;52.986;6.980;2023-12-20T04:46:11;38.20;;;3.88;;
52708;SDS011;38606;52.986;6.980;2023-12-20T04:48:37;37.17;;;4.20;;
52708;SDS011;38606;52.986;6.980;2023-12-20T04:51:03;31.80;;;3.40;;
52708;SDS011;38606;52.986;6.980;2023-12-20T04:53:29;34.03;;;4.03;;
52708;SDS011;38606;52.986;6.980;2023-12-20T04:55:54;30.35;;;3.25;;
52708;SDS011;38606;52.986;6.980;2023-12-20T04:58:20;25.20;;;3.75;;
52708;SDS011;38606;52.986;6.980;2023-12-20T05:00:46;24.35;;;3.97;;
52708;SDS011;38606;52.986;6.980;2023-12-20T05:03:11;35.22;;;4.45;;
52708;SDS011;38606;52.986;6.980;2023-12-20T05:05:37;38.83;;;3.75;;
52708;SDS011;38606;52.986;6.980;2023-12-20T05:08:03;28.48;;;3.90;;
52708;SDS011;38606;52.986;6.980;2023-12-20T05:10:29;34.38;;;3.90;;
52708;SDS011;38606;52.986;6.980;2023-12-20T05:12:54;35.97;;;4.47;;
52708;SDS011;38606;52.986;6.980;2023-12-20T05:15:20;35.20;;;4.70;;
52708;SDS011;38606;52.986;6.980;2023-12-20T05:17:46;28.95;;;3.35;;
52708;SDS011;38606;52.986;6.980;2023-12-20T05:20:11;26.70;;;3.65;;
52708;SDS011;38606;52.986;6.980;2023-12-20T05:22:37;32.80;;;3.95;;
52708;SDS011;38606;52.986;6.980;2023-12-20T05:25:03;31.55;;;3.90;;
52708;SDS011;38606;52.986;6.980;2023-12-20T05:27:29;30.40;;;4.28;;
52708;SDS011;38606;52.986;6.980;2023-12-20T05:29:55;27.00;;;4.50;;
52708;SDS011;38606;52.986;6.980;2023-12-20T05:32:23;40.53;;;4.82;;
52708;SDS011;38606;52.986;6.980;2023-12-20T05:34:49;32.78;;;3.70;;
52708;SDS011;38606;52.986;6.980;2023-12-20T05:37:14;38.10;;;4.25;;
52708;SDS011;38606;52.986;6.980;2023-12-20T05:39:40;30.55;;;4.32;;
52708;SDS011;38606;52.986;6.980;2023-12-20T05:42:06;36.47;;;4.03;;
52708;SDS011;38606;52.986;6.980;2023-12-20T05:44:31;30.65;;;4.15;;
52708;SDS011;38606;52.986;6.980;2023-12-20T05:46:57;33.58;;;3.75;;
52708;SDS011;38606;52.986;6.980;2023-12-20T05:49:23;34.28;;;3.97;;
52708;SDS011;38606;52.986;6.980;2023-12-20T05:51:48;34.83;;;3.75;;
52708;SDS011;38606;52.986;6.980;2023-12-20T05:54:16;28.17;;;3.60;;
52708;SDS011;38606;52.986;6.980;2023-12-20T05:56:41;34.83;;;4.10;;
52708;SDS011;38606;52.986;6.980;2023-12-20T05:59:07;30.13;;;3.33;;
52708;SDS011;38606;52.986;6.980;2023-12-20T06:01:33;32.30;;;4.80;;
52708;SDS011;38606;52.986;6.980;2023-12-20T06:03:58;33.75;;;3.97;;
52708;SDS011;38606;52.986;6.980;2023-12-20T06:06:24;26.58;;;3.55;;
52708;SDS011;38606;52.986;6.980;2023-12-20T06:08:50;40.28;;;4.72;;
52708;SDS011;38606;52.986;6.980;2023-12-20T06:11:16;39.42;;;5.03;;
52708;SDS011;38606;52.986;6.980;2023-12-20T06:13:41;42.15;;;5.38;;
52708;SDS011;38606;52.986;6.980;2023-12-20T06:16:07;38.63;;;4.45;;
52708;SDS011;38606;52.986;6.980;2023-12-20T06:18:33;32.08;;;3.92;;
52708;SDS011;38606;52.986;6.980;2023-12-20T06:20:59;38.42;;;3.70;;
52708;SDS011;38606;52.986;6.980;2023-12-20T06:23:25;35.80;;;4.55;;
52708;SDS011;38606;52.986;6.980;2023-12-20T06:25:50;32.58;;;4.25;;
52708;SDS011;38606;52.986;6.980;2023-12-20T06:28:16;34.95;;;4.40;;
52708;SDS011;38606;52.986;6.980;2023-12-20T06:30:42;37.30;;;4.22;;
52708;SDS011;38606;52.986;6.980;2023-12-20T06:33:07;27.15;;;3.78;;
52708;SDS011;38606;52.986;6.980;2023-12-20T06:35:35;29.88;;;4.35;;
52708;SDS011;38606;52.986;6.980;2023-12-20T06:38:00;34.25;;;4.35;;
52708;SDS011;38606;52.986;6.980;2023-12-20T06:40:26;31.75;;;4.00;;
52708;SDS011;38606;52.986;6.980;2023-12-20T06:42:52;33.42;;;3.95;;
52708;SDS011;38606;52.986;6.980;2023-12-20T06:45:17;42.33;;;5.70;;
52708;SDS011;38606;52.986;6.980;2023-12-20T06:47:43;28.75;;;3.70;;
52708;SDS011;38606;52.986;6.980;2023-12-20T06:50:09;28.60;;;3.58;;
52708;SDS011;38606;52.986;6.980;2023-12-20T06:52:34;31.63;;;4.53;;
52708;SDS011;38606;52.986;6.980;2023-12-20T06:55:00;28.92;;;4.18;;
52708;SDS011;38606;52.986;6.980;2023-12-20T06:57:26;26.42;;;3.95;;
52708;SDS011;38606;52.986;6.980;2023-12-20T06:59:52;36.75;;;4.00;;
52708;SDS011;38606;52.986;6.980;2023-12-20T07:02:18;39.42;;;4.30;;
52708;SDS011;38606;52.986;6.980;2023-12-20T07:04:44;32.00;;;3.50;;
52708;SDS011;38606;52.986;6.980;2023-12-20T07:07:10;38.45;;;3.83;;
52708;SDS011;38606;52.986;6.980;2023-12-20T07:09:35;33.30;;;4.38;;
52708;SDS011;38606;52.986;6.980;2023-12-20T07:12:02;35.15;;;4.57;;
52708;SDS011;38606;52.986;6.980;2023-12-20T07:14:28;38.85;;;5.50;;
52708;SDS011;38606;52.986;6.980;2023-12-20T07:16:54;34.72;;;3.60;;
52708;SDS011;38606;52.986;6.980;2023-12-20T07:19:20;29.23;;;4.63;;
52708;SDS011;38606;52.986;6.980;2023-12-20T07:21:45;27.40;;;3.10;;
52708;SDS011;38606;52.986;6.980;2023-12-20T07:24:11;27.23;;;3.55;;
52708;SDS011;38606;52.986;6.980;2023-12-20T07:26:37;36.15;;;4.18;;
52708;SDS011;38606;52.986;6.980;2023-12-20T07:29:03;32.03;;;3.72;;
52708;SDS011;38606;52.986;6.980;2023-12-20T07:31:29;35.03;;;5.05;;
52708;SDS011;38606;52.986;6.980;2023-12-20T07:33:56;30.83;;;3.85;;
52708;SDS011;38606;52.986;6.980;2023-12-20T07:36:21;38.78;;;5.32;;
52708;SDS011;38606;52.986;6.980;2023-12-20T07:38:47;29.75;;;3.38;;
52708;SDS011;38606;52.986;6.980;2023-12-20T07:41:13;33.30;;;4.30;;
52708;SDS011;38606;52.986;6.980;2023-12-20T07:43:41;34.67;;;5.25;;
52708;SDS011;38606;52.986;6.980;2023-12-20T07:46:07;32.03;;;4.55;;
52708;SDS011;38606;52.986;6.980;2023-12-20T07:48:37;37.92;;;5.22;;
52708;SDS011;38606;52.986;6.980;2023-12-20T07:51:03;39.30;;;4.20;;
52708;SDS011;38606;52.986;6.980;2023-12-20T07:53:31;45.58;;;4.10;;
52708;SDS011;38606;52.986;6.980;2023-12-20T07:55:57;28.77;;;4.53;;
52708;SDS011;38606;52.986;6.980;2023-12-20T07:58:22;24.00;;;3.90;;
52708;SDS011;38606;52.986;6.980;2023-12-20T08:00:48;26.00;;;5.28;;
52708;SDS011;38606;52.986;6.980;2023-12-20T08:03:14;33.22;;;4.55;;
52708;SDS011;38606;52.986;6.980;2023-12-20T08:05:40;32.80;;;4.53;;
52708;SDS011;38606;52.986;6.980;2023-12-20T08:08:06;23.60;;;3.75;;
52708;SDS011;38606;52.986;6.980;2023-12-20T08:10:32;34.78;;;4.18;;
52708;SDS011;38606;52.986;6.980;2023-12-20T08:12:57;24.85;;;4.15;;
52708;SDS011;38606;52.986;6.980;2023-12-20T08:15:23;31.67;;;3.95;;
52708;SDS011;38606;52.986;6.980;2023-12-20T08:17:49;26.60;;;4.13;;
52708;SDS011;38606;52.986;6.980;2023-12-20T08:20:18;31.38;;;5.30;;
52708;SDS011;38606;52.986;6.980;2023-12-20T08:22:44;22.55;;;4.03;;
52708;SDS011;38606;52.986;6.980;2023-12-20T08:25:09;27.17;;;3.90;;
52708;SDS011;38606;52.986;6.980;2023-12-20T08:27:41;33.45;;;4.95;;
52708;SDS011;38606;52.986;6.980;2023-12-20T08:30:10;31.58;;;5.22;;
52708;SDS011;38606;52.986;6.980;2023-12-20T08:32:36;36.33;;;3.80;;
52708;SDS011;38606;52.986;6.980;2023-12-20T08:35:02;27.80;;;3.75;;
52708;SDS011;38606;52.986;6.980;2023-12-20T08:37:28;25.10;;;3.95;;
52708;SDS011;38606;52.986;6.980;2023-12-20T08:39:55;38.38;;;5.18;;
52708;SDS011;38606;52.986;6.980;2023-12-20T08:42:21;27.42;;;4.85;;
52708;SDS011;38606;52.986;6.980;2023-12-20T08:44:46;26.13;;;4.13;;
52708;SDS011;38606;52.986;6.980;2023-12-20T08:47:12;28.98;;;4.80;;
52708;SDS011;38606;52.986;6.980;2023-12-20T08:49:38;31.27;;;3.97;;
52708;SDS011;38606;52.986;6.980;2023-12-20T08:52:04;28.73;;;3.42;;
52708;SDS011;38606;52.986;6.980;2023-12-20T08:54:30;29.20;;;3.78;;
52708;SDS011;38606;52.986;6.980;2023-12-20T08:56:56;24.13;;;3.63;;
52708;SDS011;38606;52.986;6.980;2023-12-20T08:59:22;19.70;;;3.83;;
52708;SDS011;38606;52.986;6.980;2023-12-20T09:01:48;23.73;;;3.33;;
52708;SDS011;38606;52.986;6.980;2023-12-20T09:04:19;17.65;;;2.85;;
52708;SDS011;38606;52.986;6.980;2023-12-20T09:06:45;16.75;;;2.40;;
52708;SDS011;38606;52.986;6.980;2023-12-20T09:09:10;16.10;;;2.47;;
52708;SDS011;38606;52.986;6.980;2023-12-20T09:11:38;14.10;;;1.90;;
52708;SDS011;38606;52.986;6.980;2023-12-20T09:14:04;22.33;;;2.80;;
52708;SDS011;38606;52.986;6.980;2023-12-20T09:16:30;15.52;;;2.17;;
52708;SDS011;38606;52.986;6.980;2023-12-20T09:18:56;22.55;;;4.32;;
52708;SDS011;38606;52.986;6.980;2023-12-20T09:21:22;14.75;;;3.15;;
52708;SDS011;38606;52.986;6.980;2023-12-20T09:23:48;17.75;;;2.63;;
52708;SDS011;38606;52.986;6.980;2023-12-20T09:26:14;24.60;;;3.00;;
52708;SDS011;38606;52.986;6.980;2023-12-20T09:28:40;24.95;;;3.45;;
52708;SDS011;38606;52.986;6.980;2023-12-20T09:31:05;19.20;;;2.38;;
52708;SDS011;38606;52.986;6.980;2023-12-20T09:33:32;11.93;;;2.40;;
52708;SDS011;38606;52.986;6.980;2023-12-20T09:35:58;8.30;;;1.52;;
52708;SDS011;38606;52.986;6.980;2023-12-20T09:38:24;7.00;;;1.73;;
52708;SDS011;38606;52.986;6.980;2023-12-20T09:40:49;10.60;;;1.40;;
52708;SDS011;38606;52.986;6.980;2023-12-20T09:43:15;8.90;;;1.35;;
52708;SDS011;38606;52.986;6.980;2023-12-20T09:45:47;10.55;;;2.03;;
52708;SDS011;38606;52.986;6.980;2023-12-20T09:48:14;11.02;;;1.60;;
52708;SDS011;38606;52.986;6.980;2023-12-20T09:50:44;8.00;;;1.30;;
52708;SDS011;38606;52.986;6.980;2023-12-20T09:53:10;8.25;;;1.00;;
52708;SDS011;38606;52.986;6.980;2023-12-20T09:55:39;12.57;;;1.40;;
52708;SDS011;38606;52.986;6.980;2023-12-20T09:58:07;6.13;;;1.20;;
52708;SDS011;38606;52.986;6.980;2023-12-20T10:00:34;8.23;;;1.17;;
52708;SDS011;38606;52.986;6.980;2023-12-20T10:03:00;10.43;;;1.40;;
52708;SDS011;38606;52.986;6.980;2023-12-20T10:05:33;7.45;;;0.85;;
52708;SDS011;38606;52.986;6.980;2023-12-20T10:08:00;3.15;;;0.75;;
52708;SDS011;38606;52.986;6.980;2023-12-20T10:10:26;8.35;;;1.00;;
52708;SDS011;38606;52.986;6.980;2023-12-20T10:13:02;11.00;;;1.27;;
52708;SDS011;38606;52.986;6.980;2023-12-20T10:15:36;10.30;;;1.00;;
52708;SDS011;38606;52.986;6.980;2023-12-20T10:18:03;11.05;;;1.17;;
52708;SDS011;38606;52.986;6.980;2023-12-20T10:20:29;8.93;;;1.20;;
52708;SDS011;38606;52.986;6.980;2023-12-20T10:22:56;8.30;;;1.38;;
52708;SDS011;38606;52.986;6.980;2023-12-20T10:25:23;10.73;;;1.58;;
52708;SDS011;38606;52.986;6.980;2023-12-20T10:27:49;7.78;;;1.33;;
52708;SDS011;38606;52.986;6.980;2023-12-20T10:30:16;9.18;;;1.15;;
52708;SDS011;38606;52.986;6.980;2023-12-20T10:32:42;6.65;;;0.90;;
52708;SDS011;38606;52.986;6.980;2023-12-20T10:35:08;9.93;;;1.52;;
52708;SDS011;38606;52.986;6.980;2023-12-20T10:37:37;8.55;;;1.20;;
52708;SDS011;38606;52.986;6.980;2023-12-20T10:40:04;5.72;;;1.40;;
52708;SDS011;38606;52.986;6.980;2023-12-20T10:42:31;9.40;;;1.58;;
52708;SDS011;38606;52.986;6.980;2023-12-20T10:44:59;10.32;;;1.55;;
52708;SDS011;38606;52.986;6.980;2023-12-20T10:47:25;6.57;;;2.80;;
52708;SDS011;38606;52.986;6.980;2023-12-20T10:49:52;8.45;;;1.60;;
52708;SDS011;38606;52.986;6.980;2023-12-20T10:52:18;10.73;;;1.40;;
52708;SDS011;38606;52.986;6.980;2023-12-20T10:54:47;5.85;;;1.00;;
52708;SDS011;38606;52.986;6.980;2023-12-20T10:57:13;10.07;;;1.30;;
52708;SDS011;38606;52.986;6.980;2023-12-20T10:59:41;8.95;;;1.20;;
52708;SDS011;38606;52.986;6.980;2023-12-20T11:02:10;10.88;;;1.58;;
52708;SDS011;38606;52.986;6.980;2023-12-20T11:04:38;12.07;;;1.70;;
52708;SDS011;38606;52.986;6.980;2023-12-20T11:07:15;16.00;;;1.58;;
52708;SDS011;38606;52.986;6.980;2023-12-20T11:10:14;13.45;;;1.90;;
52708;SDS011;38606;52.986;6.980;2023-12-20T11:15:40;12.55;;;1.73;;
52708;SDS011;38606;52.986;6.980;2023-12-20T11:18:06;11.35;;;1.95;;
52708;SDS011;38606;52.986;6.980;2023-12-20T11:20:38;13.60;;;1.58;;
52708;SDS011;38606;52.986;6.980;2023-12-20T11:23:05;12.63;;;1.52;;
52708;SDS011;38606;52.986;6.980;2023-12-20T11:25:45;14.05;;;1.45;;
52708;SDS011;38606;52.986;6.980;2023-12-20T11:28:20;12.80;;;1.48;;
52708;SDS011;38606;52.986;6.980;2023-12-20T11:30:48;17.20;;;1.73;;
52708;SDS011;38606;52.986;6.980;2023-12-20T11:33:16;10.38;;;1.48;;
52708;SDS011;38606;52.986;6.980;2023-12-20T11:35:46;14.13;;;1.35;;
52708;SDS011;38606;52.986;6.980;2023-12-20T11:38:13;13.18;;;2.08;;
52708;SDS011;38606;52.986;6.980;2023-12-20T11:40:39;12.07;;;1.77;;
52708;SDS011;38606;52.986;6.980;2023-12-20T11:43:07;10.95;;;1.40;;
52708;SDS011;38606;52.986;6.980;2023-12-20T11:45:32;9.45;;;1.98;;
52708;SDS011;38606;52.986;6.980;2023-12-20T11:48:02;13.63;;;2.00;;
52708;SDS011;38606;52.986;6.980;2023-12-20T11:50:28;25.83;;;4.57;;
52708;SDS011;38606;52.986;6.980;2023-12-20T11:52:57;25.15;;;4.85;;
52708;SDS011;38606;52.986;6.980;2023-12-20T11:55:23;14.05;;;1.90;;
52708;SDS011;38606;52.986;6.980;2023-12-20T11:57:49;14.25;;;1.67;;
52708;SDS011;38606;52.986;6.980;2023-12-20T12:00:16;10.55;;;1.63;;
52708;SDS011;38606;52.986;6.980;2023-12-20T12:02:42;20.90;;;2.20;;
52708;SDS011;38606;52.986;6.980;2023-12-20T12:05:08;14.63;;;1.67;;
52708;SDS011;38606;52.986;6.980;2023-12-20T12:07:34;14.98;;;2.85;;
52708;SDS011;38606;52.986;6.980;2023-12-20T12:10:00;18.65;;;2.17;;
52708;SDS011;38606;52.986;6.980;2023-12-20T12:12:26;15.05;;;2.33;;
52708;SDS011;38606;52.986;6.980;2023-12-20T12:14:53;12.75;;;1.73;;
52708;SDS011;38606;52.986;6.980;2023-12-20T12:17:19;16.08;;;1.95;;
52708;SDS011;38606;52.986;6.980;2023-12-20T12:19:45;17.63;;;2.13;;
52708;SDS011;38606;52.986;6.980;2023-12-20T12:22:12;9.27;;;1.95;;
52708;SDS011;38606;52.986;6.980;2023-12-20T12:24:45;12.65;;;2.03;;
52708;SDS011;38606;52.986;6.980;2023-12-20T12:27:12;20.10;;;3.28;;
52708;SDS011;38606;52.986;6.980;2023-12-20T12:29:38;17.15;;;1.85;;
52708;SDS011;38606;52.986;6.980;2023-12-20T12:32:04;11.30;;;1.92;;
52708;SDS011;38606;52.986;6.980;2023-12-20T12:34:34;10.10;;;1.95;;
52708;SDS011;38606;52.986;6.980;2023-12-20T12:37:00;13.98;;;2.00;;
52708;SDS011;38606;52.986;6.980;2023-12-20T12:39:28;16.15;;;2.47;;
52708;SDS011;38606;52.986;6.980;2023-12-20T12:41:55;13.07;;;2.30;;
52708;SDS011;38606;52.986;6.980;2023-12-20T12:44:21;13.25;;;2.13;;
52708;SDS011;38606;52.986;6.980;2023-12-20T12:46:48;13.40;;;1.80;;
52708;SDS011;38606;52.986;6.980;2023-12-20T12:49:19;12.57;;;1.80;;
52708;SDS011;38606;52.986;6.980;2023-12-20T12:51:46;16.52;;;2.53;;
52708;SDS011;38606;52.986;6.980;2023-12-20T12:54:12;12.27;;;2.20;;
52708;SDS011;38606;52.986;6.980;2023-12-20T12:56:40;18.58;;;2.35;;
52708;SDS011;38606;52.986;6.980;2023-12-20T12:59:06;13.10;;;1.85;;
52708;SDS011;38606;52.986;6.980;2023-12-20T13:01:32;17.02;;;2.40;;
52708;SDS011;38606;52.986;6.980;2023-12-20T13:03:57;12.90;;;1.88;;
52708;SDS011;38606;52.986;6.980;2023-12-20T13:06:23;14.60;;;2.20;;
52708;SDS011;38606;52.986;6.980;2023-12-20T13:08:49;12.90;;;2.40;;
52708;SDS011;38606;52.986;6.980;2023-12-20T13:11:15;13.02;;;2.25;;
52708;SDS011;38606;52.986;6.980;2023-12-20T13:13:41;17.20;;;2.25;;
52708;SDS011;38606;52.986;6.980;2023-12-20T13:16:07;20.33;;;2.17;;
52708;SDS011;38606;52.986;6.980;2023-12-20T13:18:33;14.82;;;1.98;;
52708;SDS011;38606;52.986;6.980;2023-12-20T13:21:00;15.65;;;1.98;;
52708;SDS011;38606;52.986;6.980;2023-12-20T13:23:25;17.42;;;2.20;;
52708;SDS011;38606;52.986;6.980;2023-12-20T13:25:51;14.70;;;1.90;;
52708;SDS011;38606;52.986;6.980;2023-12-20T13:28:17;15.52;;;2.20;;
52708;SDS011;38606;52.986;6.980;2023-12-20T13:30:42;14.48;;;2.65;;
52708;SDS011;38606;52.986;6.980;2023-12-20T13:33:08;14.88;;;2.25;;
52708;SDS011;38606;52.986;6.980;2023-12-20T13:35:35;17.52;;;2.30;;
52708;SDS011;38606;52.986;6.980;2023-12-20T13:38:00;16.67;;;2.38;;
52708;SDS011;38606;52.986;6.980;2023-12-20T13:40:26;11.63;;;2.13;;
52708;SDS011;38606;52.986;6.980;2023-12-20T13:42:53;10.93;;;2.08;;
52708;SDS011;38606;52.986;6.980;2023-12-20T13:45:20;12.63;;;2.00;;
52708;SDS011;38606;52.986;6.980;2023-12-20T13:47:45;14.60;;;1.90;;
52708;SDS011;38606;52.986;6.980;2023-12-20T13:50:11;17.55;;;1.73;;
52708;SDS011;38606;52.986;6.980;2023-12-20T13:52:38;13.30;;;2.63;;
52708;SDS011;38606;52.986;6.980;2023-12-20T13:55:04;10.55;;;1.90;;
52708;SDS011;38606;52.986;6.980;2023-12-20T13:57:32;8.57;;;1.50;;
52708;SDS011;38606;52.986;6.980;2023-12-20T13:59:58;14.23;;;2.47;;
52708;SDS011;38606;52.986;6.980;2023-12-20T14:02:24;11.10;;;1.90;;
52708;SDS011;38606;52.986;6.980;2023-12-20T14:04:52;11.13;;;1.70;;
52708;SDS011;38606;52.986;6.980;2023-12-20T14:07:17;10.13;;;1.58;;
52708;SDS011;38606;52.986;6.980;2023-12-20T14:09:43;14.45;;;1.95;;
52708;SDS011;38606;52.986;6.980;2023-12-20T14:12:13;7.10;;;1.27;;
52708;SDS011;38606;52.986;6.980;2023-12-20T14:14:39;11.57;;;1.65;;
52708;SDS011;38606;52.986;6.980;2023-12-20T14:17:05;11.00;;;1.38;;
52708;SDS011;38606;52.986;6.980;2023-12-20T14:19:31;13.20;;;1.40;;
52708;SDS011;38606;52.986;6.980;2023-12-20T14:21:57;8.35;;;1.38;;
52708;SDS011;38606;52.986;6.980;2023-12-20T14:24:26;5.93;;;1.38;;
52708;SDS011;38606;52.986;6.980;2023-12-20T14:26:52;13.93;;;1.67;;
52708;SDS011;38606;52.986;6.980;2023-12-20T14:29:18;12.90;;;1.60;;
52708;SDS011;38606;52.986;6.980;2023-12-20T14:31:44;11.63;;;1.45;;
52708;SDS011;38606;52.986;6.980;2023-12-20T14:34:09;12.30;;;1.83;;